sensor_id;sensor_type;location;lat;lon;timestamp;P1;durP1;ratioP1;P2;durP2;ratioP2
6093;SDS011;19964;42.060;24.700;2024-01-06T00:00:45;13.20;;;10.13;;
6093;SDS011;19964;42.060;24.700;2024-01-06T00:03:14;14.70;;;10.30;;
6093;SDS011;19964;42.060;24.700;2024-01-06T00:05:42;9.57;;;6.00;;
6093;SDS011;19964;42.060;24.700;2024-01-06T00:08:10;6.87;;;5.50;;
6093;SDS011;19964;42.060;24.700;2024-01-06T00:10:37;5.97;;;4.53;;
6093;SDS011;19964;42.060;24.700;2024-01-06T00:13:04;5.23;;;3.93;;
6093;SDS011;19964;42.060;24.700;2024-01-06T00:15:31;4.90;;;4.50;;
6093;SDS011;19964;42.060;24.700;2024-01-06T00:17:58;4.70;;;3.70;;
6093;SDS011;19964;42.060;24.700;2024-01-06T00:20:25;3.77;;;3.47;;
6093;SDS011;19964;42.060;24.700;2024-01-06T00:22:53;26.10;;;14.73;;
6093;SDS011;19964;42.060;24.700;2024-01-06T00:25:21;20.07;;;12.87;;
6093;SDS011;19964;42.060;24.700;2024-01-06T00:27:48;18.00;;;13.33;;
6093;SDS011;19964;42.060;24.700;2024-01-06T00:30:15;12.37;;;9.57;;
6093;SDS011;19964;42.060;24.700;2024-01-06T00:32:42;22.40;;;13.63;;
6093;SDS011;19964;42.060;24.700;2024-01-06T00:35:09;26.73;;;14.10;;
6093;SDS011;19964;42.060;24.700;2024-01-06T00:37:37;26.83;;;14.57;;
6093;SDS011;19964;42.060;24.700;2024-01-06T00:40:06;28.87;;;17.73;;
6093;SDS011;19964;42.060;24.700;2024-01-06T00:42:33;28.37;;;19.40;;
6093;SDS011;19964;42.060;24.700;2024-01-06T00:45:00;10.03;;;8.43;;
6093;SDS011;19964;42.060;24.700;2024-01-06T00:47:28;7.60;;;6.17;;
6093;SDS011;19964;42.060;24.700;2024-01-06T00:49:55;17.53;;;10.83;;
6093;SDS011;19964;42.060;24.700;2024-01-06T00:52:22;13.30;;;9.40;;
6093;SDS011;19964;42.060;24.700;2024-01-06T00:54:49;17.10;;;13.20;;
6093;SDS011;19964;42.060;24.700;2024-01-06T00:57:17;22.77;;;14.73;;
6093;SDS011;19964;42.060;24.700;2024-01-06T00:59:49;13.47;;;9.83;;
6093;SDS011;19964;42.060;24.700;2024-01-06T01:02:16;7.47;;;5.80;;
6093;SDS011;19964;42.060;24.700;2024-01-06T01:04:43;9.40;;;8.07;;
6093;SDS011;19964;42.060;24.700;2024-01-06T01:07:10;8.83;;;7.07;;
6093;SDS011;19964;42.060;24.700;2024-01-06T01:09:38;7.20;;;5.63;;
6093;SDS011;19964;42.060;24.700;2024-01-06T01:12:05;8.20;;;5.53;;
6093;SDS011;19964;42.060;24.700;2024-01-06T01:14:34;5.63;;;5.03;;
6093;SDS011;19964;42.060;24.700;2024-01-06T01:17:01;6.17;;;5.50;;
6093;SDS011;19964;42.060;24.700;2024-01-06T01:19:29;7.43;;;6.17;;
6093;SDS011;19964;42.060;24.700;2024-01-06T01:21:56;5.83;;;5.23;;
6093;SDS011;19964;42.060;24.700;2024-01-06T01:24:23;8.73;;;4.47;;
6093;SDS011;19964;42.060;24.700;2024-01-06T01:26:50;6.80;;;4.70;;
6093;SDS011;19964;42.060;24.700;2024-01-06T01:29:17;4.93;;;4.00;;
6093;SDS011;19964;42.060;24.700;2024-01-06T01:31:46;4.50;;;4.20;;
6093;SDS011;19964;42.060;24.700;2024-01-06T01:34:13;3.63;;;3.33;;
6093;SDS011;19964;42.060;24.700;2024-01-06T01:36:41;4.03;;;3.70;;
6093;SDS011;19964;42.060;24.700;2024-01-06T01:39:08;4.13;;;3.57;;
6093;SDS011;19964;42.060;24.700;2024-01-06T01:41:35;5.00;;;4.33;;
6093;SDS011;19964;42.060;24.700;2024-01-06T01:44:02;3.77;;;3.00;;
6093;SDS011;19964;42.060;24.700;2024-01-06T01:46:29;3.60;;;3.30;;
6093;SDS011;19964;42.060;24.700;2024-01-06T01:48:59;5.87;;;3.80;;
6093;SDS011;19964;42.060;24.700;2024-01-06T01:51:28;5.13;;;4.63;;
6093;SDS011;19964;42.060;24.700;2024-01-06T01:53:57;8.80;;;4.00;;
6093;SDS011;19964;42.060;24.700;2024-01-06T01:56:25;7.00;;;4.23;;
6093;SDS011;19964;42.060;24.700;2024-01-06T01:58:53;11.00;;;5.87;;
6093;SDS011;19964;42.060;24.700;2024-01-06T02:01:20;7.93;;;6.17;;
6093;SDS011;19964;42.060;24.700;2024-01-06T02:03:47;6.67;;;6.00;;
6093;SDS011;19964;42.060;24.700;2024-01-06T02:06:16;4.93;;;4.43;;
6093;SDS011;19964;42.060;24.700;2024-01-06T02:08:43;6.17;;;5.23;;
6093;SDS011;19964;42.060;24.700;2024-01-06T02:11:10;7.37;;;4.63;;
6093;SDS011;19964;42.060;24.700;2024-01-06T02:13:37;4.90;;;4.37;;
6093;SDS011;19964;42.060;24.700;2024-01-06T02:16:04;5.27;;;4.77;;
6093;SDS011;19964;42.060;24.700;2024-01-06T02:18:32;7.63;;;4.93;;
6093;SDS011;19964;42.060;24.700;2024-01-06T02:21:00;7.27;;;5.30;;
6093;SDS011;19964;42.060;24.700;2024-01-06T02:23:29;6.27;;;4.80;;
6093;SDS011;19964;42.060;24.700;2024-01-06T02:25:56;5.33;;;4.80;;
6093;SDS011;19964;42.060;24.700;2024-01-06T02:28:23;7.33;;;4.30;;
6093;SDS011;19964;42.060;24.700;2024-01-06T02:30:50;4.90;;;4.47;;
6093;SDS011;19964;42.060;24.700;2024-01-06T02:33:18;5.83;;;5.23;;
6093;SDS011;19964;42.060;24.700;2024-01-06T02:35:45;6.70;;;5.23;;
6093;SDS011;19964;42.060;24.700;2024-01-06T02:38:12;5.80;;;4.80;;
6093;SDS011;19964;42.060;24.700;2024-01-06T02:40:41;5.20;;;4.70;;
6093;SDS011;19964;42.060;24.700;2024-01-06T02:43:08;4.67;;;4.17;;
6093;SDS011;19964;42.060;24.700;2024-01-06T02:45:35;5.63;;;5.03;;
6093;SDS011;19964;42.060;24.700;2024-01-06T02:48:02;5.40;;;4.90;;
6093;SDS011;19964;42.060;24.700;2024-01-06T02:50:30;5.50;;;4.53;;
6093;SDS011;19964;42.060;24.700;2024-01-06T02:52:57;6.13;;;4.57;;
6093;SDS011;19964;42.060;24.700;2024-01-06T02:55:24;7.77;;;4.80;;
6093;SDS011;19964;42.060;24.700;2024-01-06T02:57:52;5.17;;;4.47;;
6093;SDS011;19964;42.060;24.700;2024-01-06T03:00:19;3.83;;;3.53;;
6093;SDS011;19964;42.060;24.700;2024-01-06T03:02:47;4.73;;;4.13;;
6093;SDS011;19964;42.060;24.700;2024-01-06T03:05:14;3.10;;;2.77;;
6093;SDS011;19964;42.060;24.700;2024-01-06T03:07:42;4.60;;;3.43;;
6093;SDS011;19964;42.060;24.700;2024-01-06T03:10:09;6.97;;;3.10;;
6093;SDS011;19964;42.060;24.700;2024-01-06T03:12:36;9.23;;;3.63;;
6093;SDS011;19964;42.060;24.700;2024-01-06T03:15:05;3.80;;;3.47;;
6093;SDS011;19964;42.060;24.700;2024-01-06T03:17:33;3.47;;;3.17;;
6093;SDS011;19964;42.060;24.700;2024-01-06T03:20:00;3.70;;;3.40;;
6093;SDS011;19964;42.060;24.700;2024-01-06T03:22:27;5.50;;;3.30;;
6093;SDS011;19964;42.060;24.700;2024-01-06T03:24:54;4.03;;;2.90;;
6093;SDS011;19964;42.060;24.700;2024-01-06T03:27:21;3.97;;;3.00;;
6093;SDS011;19964;42.060;24.700;2024-01-06T03:29:48;3.53;;;3.33;;
6093;SDS011;19964;42.060;24.700;2024-01-06T03:32:16;7.47;;;3.63;;
6093;SDS011;19964;42.060;24.700;2024-01-06T03:34:43;4.50;;;4.10;;
6093;SDS011;19964;42.060;24.700;2024-01-06T03:37:10;3.63;;;3.33;;
6093;SDS011;19964;42.060;24.700;2024-01-06T03:39:37;3.90;;;3.40;;
6093;SDS011;19964;42.060;24.700;2024-01-06T03:42:04;3.47;;;3.17;;
6093;SDS011;19964;42.060;24.700;2024-01-06T03:44:32;3.37;;;3.07;;
6093;SDS011;19964;42.060;24.700;2024-01-06T03:46:59;3.27;;;2.97;;
6093;SDS011;19964;42.060;24.700;2024-01-06T03:49:27;6.03;;;3.47;;
6093;SDS011;19964;42.060;24.700;2024-01-06T03:51:54;3.40;;;3.10;;
6093;SDS011;19964;42.060;24.700;2024-01-06T03:54:21;3.37;;;3.07;;
6093;SDS011;19964;42.060;24.700;2024-01-06T03:56:49;3.40;;;3.10;;
6093;SDS011;19964;42.060;24.700;2024-01-06T03:59:16;3.73;;;3.43;;
6093;SDS011;19964;42.060;24.700;2024-01-06T04:01:43;4.90;;;3.30;;
6093;SDS011;19964;42.060;24.700;2024-01-06T04:04:10;4.67;;;3.57;;
6093;SDS011;19964;42.060;24.700;2024-01-06T04:06:38;4.03;;;3.63;;
6093;SDS011;19964;42.060;24.700;2024-01-06T04:09:05;3.87;;;3.47;;
6093;SDS011;19964;42.060;24.700;2024-01-06T04:11:34;4.20;;;3.30;;
6093;SDS011;19964;42.060;24.700;2024-01-06T04:14:01;6.30;;;4.20;;
6093;SDS011;19964;42.060;24.700;2024-01-06T04:16:28;3.90;;;3.50;;
6093;SDS011;19964;42.060;24.700;2024-01-06T04:18:55;4.93;;;4.13;;
6093;SDS011;19964;42.060;24.700;2024-01-06T04:21:22;6.83;;;4.23;;
6093;SDS011;19964;42.060;24.700;2024-01-06T04:23:51;5.13;;;4.00;;
6093;SDS011;19964;42.060;24.700;2024-01-06T04:26:18;5.37;;;4.30;;
6093;SDS011;19964;42.060;24.700;2024-01-06T04:28:45;6.70;;;6.00;;
6093;SDS011;19964;42.060;24.700;2024-01-06T04:31:12;4.90;;;4.50;;
6093;SDS011;19964;42.060;24.700;2024-01-06T04:33:39;5.27;;;4.20;;
6093;SDS011;19964;42.060;24.700;2024-01-06T04:36:06;7.07;;;4.80;;
6093;SDS011;19964;42.060;24.700;2024-01-06T04:38:34;5.17;;;4.57;;
6093;SDS011;19964;42.060;24.700;2024-01-06T04:41:02;5.90;;;4.50;;
6093;SDS011;19964;42.060;24.700;2024-01-06T04:43:29;8.57;;;4.60;;
6093;SDS011;19964;42.060;24.700;2024-01-06T04:45:56;7.57;;;5.53;;
6093;SDS011;19964;42.060;24.700;2024-01-06T04:48:23;6.53;;;5.90;;
6093;SDS011;19964;42.060;24.700;2024-01-06T04:50:50;4.67;;;4.27;;
6093;SDS011;19964;42.060;24.700;2024-01-06T04:53:17;8.03;;;4.00;;
6093;SDS011;19964;42.060;24.700;2024-01-06T04:55:45;4.33;;;3.90;;
6093;SDS011;19964;42.060;24.700;2024-01-06T04:58:14;5.20;;;3.67;;
6093;SDS011;19964;42.060;24.700;2024-01-06T05:00:41;6.30;;;5.43;;
6093;SDS011;19964;42.060;24.700;2024-01-06T05:03:07;4.53;;;4.13;;
6093;SDS011;19964;42.060;24.700;2024-01-06T05:05:34;3.73;;;3.40;;
6093;SDS011;19964;42.060;24.700;2024-01-06T05:08:01;4.53;;;4.10;;
6093;SDS011;19964;42.060;24.700;2024-01-06T05:10:28;4.13;;;3.73;;
6093;SDS011;19964;42.060;24.700;2024-01-06T05:12:55;4.70;;;4.30;;
6093;SDS011;19964;42.060;24.700;2024-01-06T05:15:24;4.87;;;4.47;;
6093;SDS011;19964;42.060;24.700;2024-01-06T05:17:51;4.00;;;3.63;;
6093;SDS011;19964;42.060;24.700;2024-01-06T05:20:17;8.70;;;3.90;;
6093;SDS011;19964;42.060;24.700;2024-01-06T05:22:44;5.50;;;4.60;;
6093;SDS011;19964;42.060;24.700;2024-01-06T05:25:11;4.90;;;4.50;;
6093;SDS011;19964;42.060;24.700;2024-01-06T05:27:38;39.70;;;26.83;;
6093;SDS011;19964;42.060;24.700;2024-01-06T05:30:06;8.33;;;7.07;;
6093;SDS011;19964;42.060;24.700;2024-01-06T05:32:35;5.10;;;4.70;;
6093;SDS011;19964;42.060;24.700;2024-01-06T05:35:03;81.87;;;39.10;;
6093;SDS011;19964;42.060;24.700;2024-01-06T05:37:31;33.53;;;18.60;;
6093;SDS011;19964;42.060;24.700;2024-01-06T05:39:58;9.67;;;7.13;;
6093;SDS011;19964;42.060;24.700;2024-01-06T05:42:28;6.13;;;5.40;;
6093;SDS011;19964;42.060;24.700;2024-01-06T05:44:55;32.93;;;19.03;;
6093;SDS011;19964;42.060;24.700;2024-01-06T05:47:22;66.70;;;36.83;;
6093;SDS011;19964;42.060;24.700;2024-01-06T05:49:50;57.83;;;28.37;;
6093;SDS011;19964;42.060;24.700;2024-01-06T05:52:17;11.00;;;8.00;;
6093;SDS011;19964;42.060;24.700;2024-01-06T05:54:44;11.20;;;7.00;;
6093;SDS011;19964;42.060;24.700;2024-01-06T05:57:11;5.63;;;4.60;;
6093;SDS011;19964;42.060;24.700;2024-01-06T05:59:38;5.37;;;4.80;;
6093;SDS011;19964;42.060;24.700;2024-01-06T06:02:05;4.80;;;4.33;;
6093;SDS011;19964;42.060;24.700;2024-01-06T06:04:32;6.63;;;5.73;;
6093;SDS011;19964;42.060;24.700;2024-01-06T06:07:00;5.97;;;4.77;;
6093;SDS011;19964;42.060;24.700;2024-01-06T06:09:27;9.77;;;6.90;;
6093;SDS011;19964;42.060;24.700;2024-01-06T06:11:54;4.80;;;4.40;;
6093;SDS011;19964;42.060;24.700;2024-01-06T06:14:21;4.80;;;4.40;;
6093;SDS011;19964;42.060;24.700;2024-01-06T06:16:48;7.47;;;4.97;;
6093;SDS011;19964;42.060;24.700;2024-01-06T06:19:15;7.17;;;5.60;;
6093;SDS011;19964;42.060;24.700;2024-01-06T06:21:43;4.33;;;4.03;;
6093;SDS011;19964;42.060;24.700;2024-01-06T06:24:11;3.90;;;3.60;;
6093;SDS011;19964;42.060;24.700;2024-01-06T06:26:38;4.23;;;3.83;;
6093;SDS011;19964;42.060;24.700;2024-01-06T06:29:05;4.00;;;3.30;;
6093;SDS011;19964;42.060;24.700;2024-01-06T06:31:33;4.87;;;4.47;;
6093;SDS011;19964;42.060;24.700;2024-01-06T06:34:00;5.53;;;4.50;;
6093;SDS011;19964;42.060;24.700;2024-01-06T06:36:27;6.07;;;5.00;;
6093;SDS011;19964;42.060;24.700;2024-01-06T06:38:54;4.27;;;3.80;;
6093;SDS011;19964;42.060;24.700;2024-01-06T06:41:24;5.70;;;3.47;;
6093;SDS011;19964;42.060;24.700;2024-01-06T06:43:51;5.37;;;3.80;;
6093;SDS011;19964;42.060;24.700;2024-01-06T06:46:18;5.73;;;3.90;;
6093;SDS011;19964;42.060;24.700;2024-01-06T06:48:45;4.57;;;3.97;;
6093;SDS011;19964;42.060;24.700;2024-01-06T06:51:12;4.00;;;3.60;;
6093;SDS011;19964;42.060;24.700;2024-01-06T06:53:39;6.40;;;4.50;;
6093;SDS011;19964;42.060;24.700;2024-01-06T06:56:06;3.60;;;3.30;;
6093;SDS011;19964;42.060;24.700;2024-01-06T06:58:34;3.90;;;3.50;;
6093;SDS011;19964;42.060;24.700;2024-01-06T07:01:01;4.03;;;3.73;;
6093;SDS011;19964;42.060;24.700;2024-01-06T07:03:30;5.20;;;4.70;;
6093;SDS011;19964;42.060;24.700;2024-01-06T07:05:57;6.17;;;4.20;;
6093;SDS011;19964;42.060;24.700;2024-01-06T07:08:24;10.40;;;4.40;;
6093;SDS011;19964;42.060;24.700;2024-01-06T07:10:51;6.97;;;5.50;;
6093;SDS011;19964;42.060;24.700;2024-01-06T07:13:18;4.67;;;4.27;;
6093;SDS011;19964;42.060;24.700;2024-01-06T07:15:46;6.30;;;5.70;;
6093;SDS011;19964;42.060;24.700;2024-01-06T07:18:13;6.00;;;5.40;;
6093;SDS011;19964;42.060;24.700;2024-01-06T07:20:40;12.97;;;8.70;;
6093;SDS011;19964;42.060;24.700;2024-01-06T07:23:07;11.40;;;8.00;;
6093;SDS011;19964;42.060;24.700;2024-01-06T07:25:34;7.37;;;6.60;;
6093;SDS011;19964;42.060;24.700;2024-01-06T07:28:01;13.90;;;8.10;;
6093;SDS011;19964;42.060;24.700;2024-01-06T07:30:28;12.03;;;8.47;;
6093;SDS011;19964;42.060;24.700;2024-01-06T07:32:56;19.73;;;13.93;;
6093;SDS011;19964;42.060;24.700;2024-01-06T07:35:23;12.97;;;9.10;;
6093;SDS011;19964;42.060;24.700;2024-01-06T07:37:50;21.23;;;11.57;;
6093;SDS011;19964;42.060;24.700;2024-01-06T07:40:18;19.83;;;13.17;;
6093;SDS011;19964;42.060;24.700;2024-01-06T07:42:45;20.33;;;13.73;;
6093;SDS011;19964;42.060;24.700;2024-01-06T07:45:12;20.70;;;13.03;;
6093;SDS011;19964;42.060;24.700;2024-01-06T07:47:39;17.17;;;11.73;;
6093;SDS011;19964;42.060;24.700;2024-01-06T07:50:08;9.70;;;7.77;;
6093;SDS011;19964;42.060;24.700;2024-01-06T07:52:35;15.70;;;9.70;;
6093;SDS011;19964;42.060;24.700;2024-01-06T07:55:03;14.30;;;9.93;;
6093;SDS011;19964;42.060;24.700;2024-01-06T07:57:30;22.97;;;14.70;;
6093;SDS011;19964;42.060;24.700;2024-01-06T07:59:57;20.83;;;14.33;;
6093;SDS011;19964;42.060;24.700;2024-01-06T08:02:25;50.97;;;31.87;;
6093;SDS011;19964;42.060;24.700;2024-01-06T08:04:52;44.67;;;31.60;;
6093;SDS011;19964;42.060;24.700;2024-01-06T08:07:22;40.50;;;28.43;;
6093;SDS011;19964;42.060;24.700;2024-01-06T08:09:49;35.23;;;23.87;;
6093;SDS011;19964;42.060;24.700;2024-01-06T08:12:16;34.57;;;23.13;;
6093;SDS011;19964;42.060;24.700;2024-01-06T08:14:43;32.70;;;20.30;;
6093;SDS011;19964;42.060;24.700;2024-01-06T08:17:09;26.90;;;19.07;;
6093;SDS011;19964;42.060;24.700;2024-01-06T08:19:36;29.23;;;19.00;;
6093;SDS011;19964;42.060;24.700;2024-01-06T08:22:03;28.17;;;19.47;;
6093;SDS011;19964;42.060;24.700;2024-01-06T08:24:32;24.83;;;18.10;;
6093;SDS011;19964;42.060;24.700;2024-01-06T08:26:59;30.73;;;19.93;;
6093;SDS011;19964;42.060;24.700;2024-01-06T08:29:26;25.67;;;18.83;;
6093;SDS011;19964;42.060;24.700;2024-01-06T08:31:52;28.40;;;19.03;;
6093;SDS011;19964;42.060;24.700;2024-01-06T08:34:19;24.13;;;18.23;;
6093;SDS011;19964;42.060;24.700;2024-01-06T08:36:46;24.53;;;17.97;;
6093;SDS011;19964;42.060;24.700;2024-01-06T08:39:13;32.90;;;20.93;;
6093;SDS011;19964;42.060;24.700;2024-01-06T08:41:42;35.20;;;24.33;;
6093;SDS011;19964;42.060;24.700;2024-01-06T08:44:10;37.80;;;26.70;;
6093;SDS011;19964;42.060;24.700;2024-01-06T08:46:37;38.97;;;24.27;;
6093;SDS011;19964;42.060;24.700;2024-01-06T08:49:04;37.07;;;23.30;;
6093;SDS011;19964;42.060;24.700;2024-01-06T08:51:31;32.77;;;22.27;;
6093;SDS011;19964;42.060;24.700;2024-01-06T08:53:58;32.07;;;21.77;;
6093;SDS011;19964;42.060;24.700;2024-01-06T08:56:28;32.07;;;22.23;;
6093;SDS011;19964;42.060;24.700;2024-01-06T08:58:56;47.03;;;30.13;;
6093;SDS011;19964;42.060;24.700;2024-01-06T09:01:24;46.30;;;28.67;;
6093;SDS011;19964;42.060;24.700;2024-01-06T09:03:51;46.97;;;28.57;;
6093;SDS011;19964;42.060;24.700;2024-01-06T09:06:18;47.40;;;29.97;;
6093;SDS011;19964;42.060;24.700;2024-01-06T09:08:45;50.73;;;31.57;;
6093;SDS011;19964;42.060;24.700;2024-01-06T09:11:12;55.97;;;37.37;;
6093;SDS011;19964;42.060;24.700;2024-01-06T09:13:39;67.50;;;39.63;;
6093;SDS011;19964;42.060;24.700;2024-01-06T09:16:07;47.73;;;31.20;;
6093;SDS011;19964;42.060;24.700;2024-01-06T09:18:35;44.27;;;30.83;;
6093;SDS011;19964;42.060;24.700;2024-01-06T09:21:02;45.23;;;29.60;;
6093;SDS011;19964;42.060;24.700;2024-01-06T09:23:30;44.07;;;31.03;;
6093;SDS011;19964;42.060;24.700;2024-01-06T09:25:57;48.97;;;28.63;;
6093;SDS011;19964;42.060;24.700;2024-01-06T09:28:24;47.07;;;28.63;;
6093;SDS011;19964;42.060;24.700;2024-01-06T09:30:51;53.23;;;32.20;;
6093;SDS011;19964;42.060;24.700;2024-01-06T09:33:22;54.80;;;33.70;;
6093;SDS011;19964;42.060;24.700;2024-01-06T09:35:49;47.43;;;33.03;;
6093;SDS011;19964;42.060;24.700;2024-01-06T09:38:16;50.73;;;31.97;;
6093;SDS011;19964;42.060;24.700;2024-01-06T09:40:44;47.97;;;31.27;;
6093;SDS011;19964;42.060;24.700;2024-01-06T09:43:11;54.87;;;31.40;;
6093;SDS011;19964;42.060;24.700;2024-01-06T09:45:38;45.33;;;28.63;;
6093;SDS011;19964;42.060;24.700;2024-01-06T09:48:08;49.30;;;31.30;;
6093;SDS011;19964;42.060;24.700;2024-01-06T09:50:40;45.33;;;30.93;;
6093;SDS011;19964;42.060;24.700;2024-01-06T09:53:10;46.23;;;30.30;;
6093;SDS011;19964;42.060;24.700;2024-01-06T09:55:38;56.50;;;34.97;;
6093;SDS011;19964;42.060;24.700;2024-01-06T09:58:05;51.63;;;33.50;;
6093;SDS011;19964;42.060;24.700;2024-01-06T10:00:35;56.73;;;36.07;;
6093;SDS011;19964;42.060;24.700;2024-01-06T10:03:02;55.40;;;33.00;;
6093;SDS011;19964;42.060;24.700;2024-01-06T10:05:29;49.10;;;30.80;;
6093;SDS011;19964;42.060;24.700;2024-01-06T10:07:58;53.27;;;33.20;;
6093;SDS011;19964;42.060;24.700;2024-01-06T10:10:26;58.17;;;36.83;;
6093;SDS011;19964;42.060;24.700;2024-01-06T10:12:54;61.20;;;38.00;;
6093;SDS011;19964;42.060;24.700;2024-01-06T10:15:21;60.50;;;36.87;;
6093;SDS011;19964;42.060;24.700;2024-01-06T10:17:48;61.73;;;37.63;;
6093;SDS011;19964;42.060;24.700;2024-01-06T10:20:15;65.70;;;38.40;;
6093;SDS011;19964;42.060;24.700;2024-01-06T10:22:45;71.10;;;42.13;;
6093;SDS011;19964;42.060;24.700;2024-01-06T10:25:13;70.63;;;41.67;;
6093;SDS011;19964;42.060;24.700;2024-01-06T10:27:41;65.83;;;39.40;;
6093;SDS011;19964;42.060;24.700;2024-01-06T10:30:08;53.90;;;37.83;;
6093;SDS011;19964;42.060;24.700;2024-01-06T10:32:36;53.70;;;34.80;;
6093;SDS011;19964;42.060;24.700;2024-01-06T10:35:03;51.43;;;35.90;;
6093;SDS011;19964;42.060;24.700;2024-01-06T10:37:31;50.70;;;34.27;;
6093;SDS011;19964;42.060;24.700;2024-01-06T10:40:06;50.87;;;34.60;;
6093;SDS011;19964;42.060;24.700;2024-01-06T10:42:35;49.37;;;33.93;;
6093;SDS011;19964;42.060;24.700;2024-01-06T10:45:04;49.20;;;32.57;;
6093;SDS011;19964;42.060;24.700;2024-01-06T10:47:34;49.87;;;32.23;;
6093;SDS011;19964;42.060;24.700;2024-01-06T10:50:01;47.13;;;32.17;;
6093;SDS011;19964;42.060;24.700;2024-01-06T10:52:29;47.50;;;31.80;;
6093;SDS011;19964;42.060;24.700;2024-01-06T10:54:56;48.90;;;31.53;;
6093;SDS011;19964;42.060;24.700;2024-01-06T10:57:24;54.10;;;30.80;;
6093;SDS011;19964;42.060;24.700;2024-01-06T10:59:54;49.97;;;31.73;;
6093;SDS011;19964;42.060;24.700;2024-01-06T11:02:23;49.37;;;33.20;;
6093;SDS011;19964;42.060;24.700;2024-01-06T11:04:51;43.80;;;31.03;;
6093;SDS011;19964;42.060;24.700;2024-01-06T11:07:19;65.00;;;42.77;;
6093;SDS011;19964;42.060;24.700;2024-01-06T11:09:49;58.67;;;31.40;;
6093;SDS011;19964;42.060;24.700;2024-01-06T11:12:20;50.93;;;31.13;;
6093;SDS011;19964;42.060;24.700;2024-01-06T11:14:46;54.47;;;30.90;;
6093;SDS011;19964;42.060;24.700;2024-01-06T11:17:14;51.63;;;31.00;;
6093;SDS011;19964;42.060;24.700;2024-01-06T11:20:18;52.30;;;32.33;;
6093;SDS011;19964;42.060;24.700;2024-01-06T11:22:46;48.60;;;31.73;;
6093;SDS011;19964;42.060;24.700;2024-01-06T11:25:14;51.40;;;31.23;;
6093;SDS011;19964;42.060;24.700;2024-01-06T11:27:42;45.73;;;28.80;;
6093;SDS011;19964;42.060;24.700;2024-01-06T11:30:19;43.20;;;27.57;;
6093;SDS011;19964;42.060;24.700;2024-01-06T11:32:48;42.50;;;27.33;;
6093;SDS011;19964;42.060;24.700;2024-01-06T11:35:18;40.13;;;25.00;;
6093;SDS011;19964;42.060;24.700;2024-01-06T11:37:53;38.37;;;23.40;;
6093;SDS011;19964;42.060;24.700;2024-01-06T11:40:25;42.00;;;24.73;;
6093;SDS011;19964;42.060;24.700;2024-01-06T11:42:58;33.27;;;23.27;;
6093;SDS011;19964;42.060;24.700;2024-01-06T11:45:31;35.93;;;22.47;;
6093;SDS011;19964;42.060;24.700;2024-01-06T11:48:00;34.10;;;20.90;;
6093;SDS011;19964;42.060;24.700;2024-01-06T11:50:29;34.60;;;20.37;;
6093;SDS011;19964;42.060;24.700;2024-01-06T11:52:58;27.40;;;18.20;;
6093;SDS011;19964;42.060;24.700;2024-01-06T11:55:26;27.83;;;17.83;;
6093;SDS011;19964;42.060;24.700;2024-01-06T11:57:54;26.27;;;17.50;;
6093;SDS011;19964;42.060;24.700;2024-01-06T12:00:22;24.40;;;16.83;;
6093;SDS011;19964;42.060;24.700;2024-01-06T12:02:49;26.10;;;16.27;;
6093;SDS011;19964;42.060;24.700;2024-01-06T12:05:23;33.77;;;18.73;;
6093;SDS011;19964;42.060;24.700;2024-01-06T12:07:55;25.87;;;17.67;;
6093;SDS011;19964;42.060;24.700;2024-01-06T12:10:23;30.83;;;18.10;;
6093;SDS011;19964;42.060;24.700;2024-01-06T12:12:54;27.53;;;18.03;;
6093;SDS011;19964;42.060;24.700;2024-01-06T12:15:23;28.47;;;18.03;;
6093;SDS011;19964;42.060;24.700;2024-01-06T12:17:50;27.97;;;17.40;;
6093;SDS011;19964;42.060;24.700;2024-01-06T12:20:17;28.60;;;18.03;;
6093;SDS011;19964;42.060;24.700;2024-01-06T12:22:46;32.30;;;19.37;;
6093;SDS011;19964;42.060;24.700;2024-01-06T12:25:14;33.30;;;20.27;;
6093;SDS011;19964;42.060;24.700;2024-01-06T12:27:42;29.30;;;19.30;;
6093;SDS011;19964;42.060;24.700;2024-01-06T12:30:12;26.67;;;20.03;;
6093;SDS011;19964;42.060;24.700;2024-01-06T12:32:44;30.00;;;20.93;;
6093;SDS011;19964;42.060;24.700;2024-01-06T12:35:12;30.30;;;18.73;;
6093;SDS011;19964;42.060;24.700;2024-01-06T12:37:39;43.10;;;31.00;;
6093;SDS011;19964;42.060;24.700;2024-01-06T12:40:10;18.63;;;14.50;;
6093;SDS011;19964;42.060;24.700;2024-01-06T12:42:38;24.90;;;15.60;;
6093;SDS011;19964;42.060;24.700;2024-01-06T12:45:05;26.33;;;15.57;;
6093;SDS011;19964;42.060;24.700;2024-01-06T12:47:33;21.00;;;14.00;;
6093;SDS011;19964;42.060;24.700;2024-01-06T12:50:01;20.37;;;13.47;;
6093;SDS011;19964;42.060;24.700;2024-01-06T12:52:29;20.70;;;15.33;;
6093;SDS011;19964;42.060;24.700;2024-01-06T12:54:56;25.53;;;16.43;;
6093;SDS011;19964;42.060;24.700;2024-01-06T12:57:25;21.70;;;14.47;;
6093;SDS011;19964;42.060;24.700;2024-01-06T12:59:52;19.37;;;13.40;;
6093;SDS011;19964;42.060;24.700;2024-01-06T13:02:19;19.43;;;13.47;;
6093;SDS011;19964;42.060;24.700;2024-01-06T13:04:47;19.83;;;12.70;;
6093;SDS011;19964;42.060;24.700;2024-01-06T13:07:14;21.90;;;13.73;;
6093;SDS011;19964;42.060;24.700;2024-01-06T13:09:41;17.80;;;12.90;;
6093;SDS011;19964;42.060;24.700;2024-01-06T13:12:09;18.27;;;12.70;;
6093;SDS011;19964;42.060;24.700;2024-01-06T13:14:38;18.30;;;13.50;;
6093;SDS011;19964;42.060;24.700;2024-01-06T13:17:05;18.37;;;13.30;;
6093;SDS011;19964;42.060;24.700;2024-01-06T13:19:34;21.43;;;13.30;;
6093;SDS011;19964;42.060;24.700;2024-01-06T13:22:01;21.03;;;14.13;;
6093;SDS011;19964;42.060;24.700;2024-01-06T13:24:28;20.40;;;14.30;;
6093;SDS011;19964;42.060;24.700;2024-01-06T13:26:55;21.87;;;13.97;;
6093;SDS011;19964;42.060;24.700;2024-01-06T13:29:24;19.87;;;13.83;;
6093;SDS011;19964;42.060;24.700;2024-01-06T13:31:52;18.67;;;13.00;;
6093;SDS011;19964;42.060;24.700;2024-01-06T13:34:19;18.90;;;14.10;;
6093;SDS011;19964;42.060;24.700;2024-01-06T13:36:46;18.03;;;12.40;;
6093;SDS011;19964;42.060;24.700;2024-01-06T13:39:12;18.00;;;12.73;;
6093;SDS011;19964;42.060;24.700;2024-01-06T13:41:45;20.43;;;13.90;;
6093;SDS011;19964;42.060;24.700;2024-01-06T13:44:12;21.80;;;14.93;;
6093;SDS011;19964;42.060;24.700;2024-01-06T13:46:40;24.13;;;15.57;;
6093;SDS011;19964;42.060;24.700;2024-01-06T13:49:11;22.63;;;15.40;;
6093;SDS011;19964;42.060;24.700;2024-01-06T13:51:38;21.57;;;16.30;;
6093;SDS011;19964;42.060;24.700;2024-01-06T13:54:05;23.50;;;15.57;;
6093;SDS011;19964;42.060;24.700;2024-01-06T13:56:32;22.00;;;15.47;;
6093;SDS011;19964;42.060;24.700;2024-01-06T13:59:00;22.27;;;15.30;;
6093;SDS011;19964;42.060;24.700;2024-01-06T14:01:27;23.70;;;16.10;;
6093;SDS011;19964;42.060;24.700;2024-01-06T14:03:54;25.00;;;15.97;;
6093;SDS011;19964;42.060;24.700;2024-01-06T14:06:24;24.50;;;15.23;;
6093;SDS011;19964;42.060;24.700;2024-01-06T14:08:55;34.53;;;19.30;;
6093;SDS011;19964;42.060;24.700;2024-01-06T14:11:22;24.73;;;17.10;;
6093;SDS011;19964;42.060;24.700;2024-01-06T14:13:49;29.03;;;18.20;;
6093;SDS011;19964;42.060;24.700;2024-01-06T14:16:17;25.37;;;15.77;;
6093;SDS011;19964;42.060;24.700;2024-01-06T14:18:44;24.57;;;16.50;;
6093;SDS011;19964;42.060;24.700;2024-01-06T14:21:11;23.37;;;16.13;;
6093;SDS011;19964;42.060;24.700;2024-01-06T14:23:41;23.17;;;15.73;;
6093;SDS011;19964;42.060;24.700;2024-01-06T14:26:08;23.40;;;16.23;;
6093;SDS011;19964;42.060;24.700;2024-01-06T14:28:35;26.53;;;17.67;;
6093;SDS011;19964;42.060;24.700;2024-01-06T14:31:03;24.80;;;17.57;;
6093;SDS011;19964;42.060;24.700;2024-01-06T14:33:30;22.20;;;16.73;;
6093;SDS011;19964;42.060;24.700;2024-01-06T14:35:57;25.30;;;17.40;;